Time;durP1;ratioP1;P1;durP2;ratioP2;P2;SDS_P1;SDS_P2;PMS_P1;PMS_P2;Temp;Humidity;BMP_temperature;BMP_pressure;BME280_temperature;BME280_humidity;BME280_pressure;Samples;Min_cycle;Max_cycle;Signal;HPM_P1;HPM_P2
2023/09/02 00:02:13;;;;;;;;;;;;;;;17.18;72.93;100376.66;5078838;28;2368;-79
2023/09/02 00:05:05;;;;;;;;;;;;;;;17.18;72.89;100376.66;5074111;28;2542;-78
2023/09/02 00:07:57;;;;;;;;;;;;;;;17.17;72.94;100377.75;5075716;28;2270;-78
2023/09/02 00:10:49;;;;;;;;;;;;;;;17.16;72.95;100382.38;5069926;28;2316;-78
2023/09/02 00:13:41;;;;;;;;;;;;;;;17.15;72.76;100377.22;5073259;28;2396;-79
2023/09/02 00:16:33;;;;;;;;;;;;;;;17.16;72.85;100381.56;5070382;28;2669;-77
2023/09/02 00:19:25;;;;;;;;;;;;;;;17.14;72.76;100379.09;5079354;28;2283;-78
2023/09/02 00:22:16;;;;;;;;;;;;;;;17.13;72.62;100384.81;5073116;28;2367;-78
2023/09/02 00:25:08;;;;;;;;;;;;;;;17.14;72.75;100389.97;5069523;28;2538;-77
2023/09/02 00:28:00;;;;;;;;;;;;;;;17.13;72.86;100398.41;5070456;28;2574;-76
2023/09/02 00:30:52;;;;;;;;;;;;;;;17.12;72.90;100400.31;5069664;28;2360;-76
2023/09/02 00:33:44;;;;;;;;;;;;;;;17.11;72.68;100406.84;5069300;28;2278;-77
2023/09/02 00:36:36;;;;;;;;;;;;;;;17.11;72.66;100411.47;5071305;28;2492;-77
2023/09/02 00:39:28;;;;;;;;;;;;;;;17.09;72.76;100400.84;5068756;28;2286;-77
2023/09/02 00:42:20;;;;;;;;;;;;;;;17.09;72.66;100400.84;5071659;28;2266;-78
2023/09/02 00:45:12;;;;;;;;;;;;;;;17.09;72.63;100402.72;5069428;28;2274;-78
2023/09/02 00:48:04;;;;;;;;;;;;;;;17.08;72.74;100395.66;5072609;28;2258;-78
2023/09/02 00:50:56;;;;;;;;;;;;;;;17.08;72.72;100399.19;5078917;28;2518;-77
2023/09/02 00:53:48;;;;;;;;;;;;;;;17.07;72.64;100408.47;5071894;28;2625;-77
2023/09/02 00:56:40;;;;;;;;;;;;;;;17.05;72.63;100405.19;5072844;28;2507;-77
2023/09/02 00:59:32;;;;;;;;;;;;;;;17.05;72.55;100407.91;5069457;28;2215;-78
2023/09/02 01:02:24;;;;;;;;;;;;;;;17.04;72.53;100411.72;5068669;28;2283;-76
2023/09/02 01:05:16;;;;;;;;;;;;;;;17.03;72.46;100413.63;5078915;28;2356;-78
2023/09/02 01:08:08;;;;;;;;;;;;;;;17.02;72.29;100411.16;5069365;28;2605;-76
2023/09/02 01:11:00;;;;;;;;;;;;;;;17.02;72.54;100416.59;5073702;28;2284;-78
2023/09/02 01:13:52;;;;;;;;;;;;;;;17.01;72.50;100414.97;5074207;28;2527;-78
2023/09/02 01:16:44;;;;;;;;;;;;;;;17.00;72.52;100411.44;5067661;28;2328;-78
2023/09/02 01:19:36;;;;;;;;;;;;;;;17.00;72.28;100416.03;5067708;28;2275;-80
2023/09/02 01:22:28;;;;;;;;;;;;;;;16.99;72.47;100420.66;5072951;28;2474;-77
2023/09/02 01:25:20;;;;;;;;;;;;;;;16.99;72.58;100428.00;5068665;28;2571;-78
2023/09/02 01:28:14;;;;;;;;;;;;;;;16.98;72.52;100424.47;5068391;28;2283;-78
2023/09/02 01:31:06;;;;;;;;;;;;;;;16.97;72.43;100425.56;5067232;28;2539;-77
2023/09/02 01:33:58;;;;;;;;;;;;;;;16.96;72.46;100429.34;5066149;28;2550;-76
2023/09/02 01:36:50;;;;;;;;;;;;;;;16.95;72.45;100430.44;5078303;28;2490;-79
2023/09/02 01:39:42;;;;;;;;;;;;;;;16.95;72.47;100432.34;5065778;28;2413;-77
2023/09/02 01:42:34;;;;;;;;;;;;;;;16.94;72.48;100438.84;5068179;28;2294;-77
2023/09/02 01:45:27;;;;;;;;;;;;;;;16.93;72.35;100432.59;5065608;28;2338;-77
2023/09/02 01:48:19;;;;;;;;;;;;;;;16.93;72.29;100432.59;5067303;28;2393;-79
2023/09/02 01:51:11;;;;;;;;;;;;;;;16.93;72.46;100431.78;5066120;28;2625;-78
2023/09/02 01:54:03;;;;;;;;;;;;;;;16.91;72.52;100428.50;5066398;28;2684;-78
2023/09/02 01:56:55;;;;;;;;;;;;;;;16.90;72.31;100435.84;5067116;28;2232;-78
2023/09/02 01:59:46;;;;;;;;;;;;;;;16.90;72.31;100429.59;5080428;28;2383;-77
2023/09/02 02:02:38;;;;;;;;;;;;;;;16.89;72.26;100430.69;5086677;28;2203;-77
2023/09/02 02:05:30;;;;;;;;;;;;;;;16.88;72.11;100437.19;5066932;28;2306;-79
2023/09/02 02:08:22;;;;;;;;;;;;;;;16.87;72.29;100435.56;5075625;28;2350;-80
2023/09/02 02:11:14;;;;;;;;;;;;;;;16.86;72.21;100434.75;5076853;28;2238;-78
2023/09/02 02:14:06;;;;;;;;;;;;;;;16.85;72.22;100435.81;5069004;28;2565;-78
2023/09/02 02:16:58;;;;;;;;;;;;;;;16.84;72.14;100436.91;5067190;28;2539;-78
2023/09/02 02:19:49;;;;;;;;;;;;;;;16.83;72.18;100451.59;5066427;28;2566;-79
2023/09/02 02:22:41;;;;;;;;;;;;;;;16.83;72.28;100445.34;5071611;28;2285;-77
2023/09/02 02:25:33;;;;;;;;;;;;;;;16.82;72.28;100457.28;5068085;28;2631;-77
2023/09/02 02:28:25;;;;;;;;;;;;;;;16.80;72.30;100457.56;5074060;28;2450;-77
2023/09/02 02:31:17;;;;;;;;;;;;;;;16.80;72.17;100465.72;5070224;28;2298;-77
2023/09/02 02:34:09;;;;;;;;;;;;;;;16.78;72.20;100467.88;5090711;28;2091;-76
2023/09/02 02:37:02;;;;;;;;;;;;;;;16.77;72.05;100472.50;5074928;28;2222;-76
2023/09/02 02:39:54;;;;;;;;;;;;;;;16.77;72.30;100468.97;5082136;28;2303;-77
2023/09/02 02:42:45;;;;;;;;;;;;;;;16.76;72.14;100475.47;5075401;28;2581;-77
2023/09/02 02:45:37;;;;;;;;;;;;;;;16.75;72.20;100468.38;5073980;28;2313;-78
2023/09/02 02:48:29;;;;;;;;;;;;;;;16.73;72.03;100475.97;5073090;28;2286;-77
2023/09/02 02:51:21;;;;;;;;;;;;;;;16.72;72.20;100471.63;5072848;28;2491;-78
2023/09/02 02:54:12;;;;;;;;;;;;;;;16.71;72.13;100476.25;5076451;28;2378;-78
2023/09/02 02:57:04;;;;;;;;;;;;;;;16.70;71.92;100479.22;5072164;28;2530;-77
2023/09/02 02:59:55;;;;;;;;;;;;;;;16.70;72.02;100484.66;5075705;28;2329;-79
2023/09/02 03:02:47;;;;;;;;;;;;;;;16.69;72.14;100485.75;5071540;28;2266;-77
2023/09/02 03:05:39;;;;;;;;;;;;;;;16.68;71.99;100481.41;5075789;28;2322;-77
2023/09/02 03:08:31;;;;;;;;;;;;;;;16.67;71.96;100482.47;5070835;28;2436;-78
2023/09/02 03:11:23;;;;;;;;;;;;;;;16.66;72.02;100491.72;5082224;28;2226;-78
2023/09/02 03:14:15;;;;;;;;;;;;;;;16.65;72.07;100490.91;5070521;28;2296;-77
2023/09/02 03:17:07;;;;;;;;;;;;;;;16.64;71.99;100493.88;5074682;28;2334;-78
2023/09/02 03:19:59;;;;;;;;;;;;;;;16.63;71.94;100495.75;5073644;28;2601;-78
2023/09/02 03:22:51;;;;;;;;;;;;;;;16.62;71.92;100494.13;5070400;28;2518;-77
2023/09/02 03:25:43;;;;;;;;;;;;;;;16.62;71.90;100493.28;5088114;28;2459;-76
2023/09/02 03:28:35;;;;;;;;;;;;;;;16.59;72.02;100489.22;5098803;28;1440;-76
2023/09/02 03:31:27;;;;;;;;;;;;;;;16.59;72.10;100491.94;5090834;28;2133;-78
2023/09/02 03:34:19;;;;;;;;;;;;;;;16.58;71.90;100493.81;5098844;28;1467;-76
2023/09/02 03:37:11;;;;;;;;;;;;;;;16.56;71.96;100490.56;5096438;28;2246;-76
2023/09/02 03:40:04;;;;;;;;;;;;;;;16.55;71.91;100490.81;5093138;28;1996;-76
2023/09/02 03:42:55;;;;;;;;;;;;;;;16.57;71.88;100496.81;5087498;28;2132;-76
2023/09/02 03:45:48;;;;;;;;;;;;;;;16.55;71.88;100493.53;5099141;28;1959;-78
2023/09/02 03:48:39;;;;;;;;;;;;;;;16.55;71.84;100494.34;5089318;28;2025;-78
2023/09/02 03:51:31;;;;;;;;;;;;;;;16.54;72.03;100490.00;5097034;28;2060;-78
2023/09/02 03:54:23;;;;;;;;;;;;;;;16.53;71.83;100496.53;5096477;28;2082;-77
2023/09/02 03:57:15;;;;;;;;;;;;;;;16.52;71.79;100499.47;5090672;28;2245;-77
2023/09/02 04:00:07;;;;;;;;;;;;;;;16.51;71.81;100500.56;5080814;28;2573;-76
2023/09/02 04:02:59;;;;;;;;;;;;;;;16.51;71.84;100503.28;5074299;28;2368;-76
2023/09/02 04:05:50;;;;;;;;;;;;;;;16.49;71.81;100513.59;5083321;28;3029;-77
2023/09/02 04:08:42;;;;;;;;;;;;;;;16.48;71.82;100498.38;5070558;28;2435;-77
2023/09/02 04:11:34;;;;;;;;;;;;;;;16.48;71.77;100511.97;5083712;28;2506;-77
2023/09/02 04:14:26;;;;;;;;;;;;;;;16.47;71.81;100513.03;5079477;28;2307;-78
2023/09/02 04:17:18;;;;;;;;;;;;;;;16.45;71.79;100507.88;5070590;28;2360;-78
2023/09/02 04:20:10;;;;;;;;;;;;;;;16.44;71.73;100516.25;5070810;28;2258;-79
2023/09/02 04:23:02;;;;;;;;;;;;;;;15.97;71.67;100449.03;5069007;28;2264;-77
2023/09/02 04:25:54;;;;;;;;;;;;;;;16.42;71.84;100518.44;5068151;28;2255;-76
2023/09/02 04:28:46;;;;;;;;;;;;;;;16.43;71.79;100529.03;5074781;28;2284;-77
2023/09/02 04:31:38;;;;;;;;;;;;;;;16.43;71.69;100518.16;5067568;28;2375;-79
2023/09/02 04:34:30;;;;;;;;;;;;;;;16.42;71.67;100523.88;5069909;28;2507;-76
2023/09/02 04:37:22;;;;;;;;;;;;;;;16.40;71.57;100528.75;5068459;28;2283;-79
2023/09/02 04:40:14;;;;;;;;;;;;;;;16.38;71.72;100525.47;5073251;28;2526;-77
2023/09/02 04:43:06;;;;;;;;;;;;;;;16.37;71.59;100530.09;5068586;28;2309;-78
2023/09/02 04:45:57;;;;;;;;;;;;;;;16.35;71.63;100538.50;5077519;28;2293;-77
2023/09/02 04:48:49;;;;;;;;;;;;;;;16.36;71.55;100536.59;5070535;28;2265;-78
2023/09/02 04:51:41;;;;;;;;;;;;;;;16.34;71.58;100534.13;5076917;28;2203;-77
2023/09/02 04:54:33;;;;;;;;;;;;;;;16.34;71.46;100536.84;5072967;28;2362;-77
2023/09/02 04:57:25;;;;;;;;;;;;;;;16.33;71.52;100542.56;5076226;28;2526;-77
2023/09/02 05:00:17;;;;;;;;;;;;;;;16.33;71.51;100548.00;5087348;28;2250;-78
2023/09/02 05:03:09;;;;;;;;;;;;;;;16.30;71.58;100549.31;5067448;28;2254;-77
2023/09/02 05:06:02;;;;;;;;;;;;;;;16.29;71.59;100550.38;5090983;28;4895;-77
2023/09/02 05:08:56;;;;;;;;;;;;;;;16.30;71.50;100551.22;5089890;28;4239;-79
2023/09/02 05:11:47;;;;;;;;;;;;;;;16.29;71.54;100555.81;5095013;28;4366;-77
2023/09/02 05:14:39;;;;;;;;;;;;;;;16.28;71.41;100551.47;5097492;28;2186;-77
2023/09/02 05:17:32;;;;;;;;;;;;;;;16.27;71.39;100558.00;5094917;28;1638;-76
2023/09/02 05:20:23;;;;;;;;;;;;;;;16.26;71.40;100555.53;5094565;28;1440;-77
2023/09/02 05:23:15;;;;;;;;;;;;;;;16.25;71.48;100565.56;5104272;28;2585;-78
2023/09/02 05:26:07;;;;;;;;;;;;;;;16.25;71.35;100559.31;5096561;28;1879;-78
2023/09/02 05:28:59;;;;;;;;;;;;;;;16.24;71.31;100563.94;5091234;28;2332;-77
2023/09/02 05:31:51;;;;;;;;;;;;;;;16.24;71.28;100569.38;5100080;28;1470;-76
2023/09/02 05:34:42;;;;;;;;;;;;;;;16.22;71.30;100571.53;5086492;28;2573;-76
2023/09/02 05:37:34;;;;;;;;;;;;;;;16.23;71.22;100572.34;5082141;28;1552;-76
2023/09/02 05:40:26;;;;;;;;;;;;;;;16.22;71.29;100571.53;5091024;28;1812;-78
2023/09/02 05:43:19;;;;;;;;;;;;;;;16.21;71.20;100580.75;5076775;28;1944;-78
2023/09/02 05:46:10;;;;;;;;;;;;;;;16.20;71.28;100578.28;5090111;28;2013;-77
2023/09/02 05:49:02;;;;;;;;;;;;;;;16.18;71.29;100581.28;5089763;28;2204;-76
2023/09/02 05:51:54;;;;;;;;;;;;;;;16.17;71.33;100586.94;5085164;28;2823;-79
2023/09/02 05:54:46;;;;;;;;;;;;;;;16.17;71.20;100578.81;5092973;28;2306;-77
2023/09/02 05:57:38;;;;;;;;;;;;;;;15.78;71.23;100524.63;5093440;28;1502;-78
2023/09/02 06:00:30;;;;;;;;;;;;;;;16.14;71.20;100585.56;5094044;28;2133;-78
2023/09/02 06:03:22;;;;;;;;;;;;;;;16.14;71.20;100582.84;5093483;28;1768;-76
2023/09/02 06:06:13;;;;;;;;;;;;;;;16.13;71.23;100586.66;5093305;28;1910;-77
2023/09/02 06:09:06;;;;;;;;;;;;;;;16.11;71.19;100577.94;5095016;28;1576;-78
2023/09/02 06:11:58;;;;;;;;;;;;;;;16.11;71.19;100586.06;5098591;28;2613;-77
2023/09/02 06:14:50;;;;;;;;;;;;;;;16.11;71.07;100583.34;5111860;28;1691;-77
2023/09/02 06:17:42;;;;;;;;;;;;;;;16.11;70.97;100586.88;5076073;28;2308;-77
2023/09/02 06:20:35;;;;;;;;;;;;;;;16.10;71.03;100585.25;5073852;28;2266;-77
2023/09/02 06:23:26;;;;;;;;;;;;;;;16.09;71.01;100588.25;5083931;28;2334;-80
2023/09/02 06:26:18;;;;;;;;;;;;;;;16.07;70.97;100588.50;5073976;28;2578;-77
2023/09/02 06:29:10;;;;;;;;;;;;;;;16.07;70.98;100596.63;5083651;28;2838;-77
2023/09/02 06:32:04;;;;;;;;;;;;;;;16.06;70.94;100591.44;5086347;28;2234;-77
2023/09/02 06:34:55;;;;;;;;;;;;;;;16.05;70.92;100597.97;5074852;28;2539;-77
2023/09/02 06:37:47;;;;;;;;;;;;;;;16.06;70.98;100605.88;5074283;28;2365;-76
2023/09/02 06:40:39;;;;;;;;;;;;;;;16.04;70.91;100604.47;5075180;28;2656;-79
2023/09/02 06:43:31;;;;;;;;;;;;;;;16.03;70.94;100597.38;5071964;28;2294;-79
2023/09/02 06:46:23;;;;;;;;;;;;;;;16.02;70.89;100601.19;5074634;28;2301;-77
2023/09/02 06:49:16;;;;;;;;;;;;;;;16.02;70.90;100603.91;5074411;28;2369;-78
2023/09/02 06:52:07;;;;;;;;;;;;;;;16.03;70.83;100600.09;5076611;28;2280;-77
2023/09/02 06:55:00;;;;;;;;;;;;;;;16.02;70.88;100599.28;5084106;28;2317;-78
2023/09/02 06:57:51;;;;;;;;;;;;;;;16.01;70.93;100605.00;5091761;28;2294;-78
2023/09/02 07:00:43;;;;;;;;;;;;;;;16.00;70.89;100606.91;5081278;28;2197;-77
2023/09/02 07:03:35;;;;;;;;;;;;;;;16.00;70.89;100608.75;5098103;28;2105;-77
2023/09/02 07:06:27;;;;;;;;;;;;;;;15.99;70.89;100618.81;5087841;28;2164;-77
2023/09/02 07:09:19;;;;;;;;;;;;;;;15.99;70.87;100616.09;5091106;28;1655;-77
2023/09/02 07:12:11;;;;;;;;;;;;;;;15.98;70.79;100617.19;5099325;28;3746;-79
2023/09/02 07:15:03;;;;;;;;;;;;;;;15.98;70.72;100622.63;5070842;28;3624;-75
2023/09/02 07:17:55;;;;;;;;;;;;;;;15.98;70.69;100619.09;5072071;28;3121;-77
2023/09/02 07:20:47;;;;;;;;;;;;;;;15.56;70.68;100549.00;5084598;28;2297;-78
2023/09/02 07:23:39;;;;;;;;;;;;;;;15.98;70.76;100622.63;5072986;28;2302;-77
2023/09/02 07:26:32;;;;;;;;;;;;;;;15.99;70.68;100620.72;5072653;28;2641;-75
2023/09/02 07:29:23;;;;;;;;;;;;;;;15.96;70.66;100610.34;5072420;28;2234;-77
2023/09/02 07:32:15;;;;;;;;;;;;;;;15.96;70.72;100619.31;5073216;28;3694;-78
2023/09/02 07:35:06;;;;;;;;;;;;;;;15.95;70.74;100622.31;5070664;28;3388;-78
2023/09/02 07:37:58;;;;;;;;;;;;;;;15.96;70.80;100621.22;5098042;28;2613;-77
2023/09/02 07:40:50;;;;;;;;;;;;;;;15.94;70.71;100620.66;5079208;28;2986;-76
2023/09/02 07:43:43;;;;;;;;;;;;;;;15.93;70.80;100625.25;5092288;28;1386;-77
2023/09/02 07:46:34;;;;;;;;;;;;;;;15.92;70.64;100623.63;5093623;28;1942;-77
2023/09/02 07:49:27;;;;;;;;;;;;;;;15.92;70.67;100629.06;5093968;28;2477;-78
2023/09/02 07:52:19;;;;;;;;;;;;;;;15.92;70.80;100625.53;5100097;28;2915;-77
2023/09/02 07:55:11;;;;;;;;;;;;;;;15.92;70.85;100634.50;5101465;28;1745;-76
2023/09/02 07:58:03;;;;;;;;;;;;;;;15.91;70.69;100632.84;5101324;28;1514;-77
2023/09/02 08:00:56;;;;;;;;;;;;;;;15.90;70.76;100626.59;5097066;28;2082;-76
2023/09/02 08:03:47;;;;;;;;;;;;;;;15.90;70.84;100628.50;5097368;28;1542;-77
2023/09/02 08:06:42;;;;;;;;;;;;;;;15.88;70.81;100626.03;5079729;28;2231;-77
2023/09/02 08:09:33;;;;;;;;;;;;;;;15.90;70.82;100625.78;5072017;28;2247;-77
2023/09/02 08:12:26;;;;;;;;;;;;;;;15.90;70.86;100631.19;5073272;28;2646;-77
2023/09/02 08:15:19;;;;;;;;;;;;;;;15.88;70.83;100620.59;5071900;28;2626;-79
2023/09/02 08:18:11;;;;;;;;;;;;;;;15.89;70.78;100626.84;5073355;28;2609;-77
2023/09/02 08:21:02;;;;;;;;;;;;;;;15.88;70.63;100623.31;5098328;28;2333;-78
2023/09/02 08:23:54;;;;;;;;;;;;;;;15.89;70.80;100624.13;5098938;28;2082;-77
2023/09/02 08:26:46;;;;;;;;;;;;;;;15.89;70.79;100624.97;5083523;28;2601;-78
2023/09/02 08:29:38;;;;;;;;;;;;;;;15.90;70.91;100623.06;5096841;28;2100;-78
2023/09/02 08:32:30;;;;;;;;;;;;;;;15.91;70.76;100624.69;5101268;28;1888;-76
2023/09/02 08:35:22;;;;;;;;;;;;;;;15.91;70.86;100632.84;5100038;28;2082;-76
2023/09/02 08:38:14;;;;;;;;;;;;;;;15.92;70.83;100630.97;5070689;28;2669;-78
2023/09/02 08:41:06;;;;;;;;;;;;;;;15.93;70.80;100629.88;5070738;28;2238;-77
2023/09/02 08:43:58;;;;;;;;;;;;;;;15.93;70.78;100629.88;5075897;28;2979;-77
2023/09/02 08:46:49;;;;;;;;;;;;;;;15.91;70.77;100635.53;5086983;28;2196;-76
2023/09/02 08:49:41;;;;;;;;;;;;;;;15.92;70.78;100634.50;5091696;28;2130;-76
2023/09/02 08:52:33;;;;;;;;;;;;;;;15.92;70.86;100634.50;5088952;28;2521;-77
2023/09/02 08:55:24;;;;;;;;;;;;;;;15.93;70.90;100638.03;5098290;28;1554;-79
2023/09/02 08:58:16;;;;;;;;;;;;;;;15.92;70.91;100639.94;5090799;28;2192;-76
2023/09/02 09:01:07;;;;;;;;;;;;;;;15.93;71.03;100643.47;5102911;28;1636;-75
2023/09/02 09:03:59;;;;;;;;;;;;;;;15.93;70.90;100640.75;5068237;28;2263;-79
2023/09/02 09:06:51;;;;;;;;;;;;;;;15.92;71.00;100639.94;5070151;28;2522;-76
2023/09/02 09:09:42;;;;;;;;;;;;;;;15.93;70.92;100633.41;5068966;28;2630;-77
2023/09/02 09:12:34;;;;;;;;;;;;;;;15.94;70.99;100640.47;5073162;28;2268;-75
2023/09/02 09:15:26;;;;;;;;;;;;;;;15.94;70.90;100640.47;5079147;28;2800;-76
2023/09/02 09:18:18;;;;;;;;;;;;;;;15.94;70.68;100632.31;5078672;28;2313;-76
2023/09/02 09:21:10;;;;;;;;;;;;;;;15.94;70.80;100637.75;5071101;28;2670;-77
2023/09/02 09:24:03;;;;;;;;;;;;;;;15.95;70.68;100642.13;5070360;28;2235;-75
2023/09/02 09:26:54;;;;;;;;;;;;;;;15.96;70.78;100637.53;5070999;28;2265;-77
2023/09/02 09:29:45;;;;;;;;;;;;;;;15.95;70.82;100634.00;5071287;28;2231;-77
2023/09/02 09:32:38;;;;;;;;;;;;;;;15.98;70.78;100643.53;5076304;28;2578;-78
2023/09/02 09:35:30;;;;;;;;;;;;;;;15.98;70.83;100649.78;5093033;28;2175;-76
2023/09/02 09:38:22;;;;;;;;;;;;;;;15.99;70.62;100647.88;5097792;28;1827;-77
2023/09/02 09:41:14;;;;;;;;;;;;;;;15.06;70.82;100488.44;5080383;28;2152;-77
2023/09/02 09:44:06;;;;;;;;;;;;;;;16.00;70.88;100633.22;5070784;28;2230;-77
2023/09/02 09:46:58;;;;;;;;;;;;;;;16.01;70.93;100634.88;5089824;28;2046;-76
2023/09/02 09:49:50;;;;;;;;;;;;;;;16.01;71.03;100635.69;5096137;28;1368;-77
2023/09/02 09:52:42;;;;;;;;;;;;;;;16.02;70.96;100639.22;5095539;28;2299;-76
2023/09/02 09:55:34;;;;;;;;;;;;;;;16.02;70.87;100637.31;5101407;28;2030;-78
2023/09/02 09:58:26;;;;;;;;;;;;;;;16.02;70.94;100650.91;5103550;28;1652;-79
2023/09/02 10:01:18;;;;;;;;;;;;;;;16.04;70.95;100639.78;5094707;28;1526;-77
2023/09/02 10:04:10;;;;;;;;;;;;;;;16.03;71.08;100638.97;5085489;28;3117;-76
2023/09/02 10:07:02;;;;;;;;;;;;;;;16.05;71.15;100644.97;5094024;28;2699;-78
2023/09/02 10:09:54;;;;;;;;;;;;;;;16.06;71.16;100640.34;5097442;28;2505;-78
2023/09/02 10:12:46;;;;;;;;;;;;;;;16.07;71.13;100640.09;5085716;28;2310;-78
2023/09/02 10:15:38;;;;;;;;;;;;;;;16.08;71.19;100649.06;5072436;28;2306;-76
2023/09/02 10:18:30;;;;;;;;;;;;;;;16.08;71.11;100636.31;5069677;28;2251;-77
2023/09/02 10:21:23;;;;;;;;;;;;;;;16.08;71.13;100636.31;5093158;28;1572;-77
2023/09/02 10:24:14;;;;;;;;;;;;;;;16.11;71.22;100645.84;5075895;28;2306;-77
2023/09/02 10:27:06;;;;;;;;;;;;;;;16.11;71.14;100635.78;5091852;28;1901;-75
2023/09/02 10:30:00;;;;;;;;;;;;;;;16.12;71.18;100642.88;5089647;28;2102;-76
2023/09/02 10:32:51;;;;;;;;;;;;;;;16.12;71.18;100648.31;5102345;28;1537;-77
2023/09/02 10:35:44;;;;;;;;;;;;;;;16.13;71.28;100641.00;5096866;28;2548;-80
2023/09/02 10:38:36;;;;;;;;;;;;;;;16.13;71.28;100644.53;5093185;28;1814;-78
2023/09/02 10:41:28;;;;;;;;;;;;;;;16.16;71.43;100642.38;5091932;28;2081;-77
2023/09/02 10:44:20;;;;;;;;;;;;;;;16.16;71.35;100643.19;5091367;28;1576;-76
2023/09/02 10:47:13;;;;;;;;;;;;;;;16.17;71.35;100644.81;5090279;28;1902;-78
2023/09/02 10:50:04;;;;;;;;;;;;;;;16.19;71.41;100647.31;5093421;28;2067;-77
2023/09/02 10:52:57;;;;;;;;;;;;;;;16.19;71.31;100642.69;5095449;28;2092;-77
2023/09/02 10:55:49;;;;;;;;;;;;;;;16.20;71.31;100647.03;5089826;28;1490;-77
2023/09/02 10:58:40;;;;;;;;;;;;;;;16.21;71.22;100637.00;5099069;28;2086;-75
2023/09/02 11:01:32;;;;;;;;;;;;;;;16.22;71.29;100641.34;5099384;28;2105;-79
2023/09/02 11:04:24;;;;;;;;;;;;;;;16.22;71.62;100634.03;5102434;28;1559;-79
2023/09/02 11:07:16;;;;;;;;;;;;;;;16.23;71.36;100632.94;5104115;28;1961;-75
2023/09/02 11:10:08;;;;;;;;;;;;;;;16.25;71.31;100638.13;5104771;28;2030;-75
2023/09/02 11:13:01;;;;;;;;;;;;;;;16.26;71.41;100631.59;5093332;28;2595;-75
2023/09/02 11:15:52;;;;;;;;;;;;;;;16.26;71.38;100629.69;5091750;28;2174;-78
2023/09/02 11:18:45;;;;;;;;;;;;;;;16.27;71.34;100631.38;5100157;28;1525;-75
2023/09/02 11:21:37;;;;;;;;;;;;;;;16.29;71.42;100631.91;5101292;28;2090;-77
2023/09/02 11:24:29;;;;;;;;;;;;;;;16.30;71.28;100632.75;5105288;28;2057;-76
2023/09/02 11:27:20;;;;;;;;;;;;;;;16.30;71.39;100622.69;5091568;28;2100;-77
2023/09/02 11:30:12;;;;;;;;;;;;;;;16.32;71.37;100633.28;5105340;28;1526;-77
2023/09/02 11:33:04;;;;;;;;;;;;;;;16.33;71.39;100634.97;5093479;28;2043;-78
2023/09/02 11:35:56;;;;;;;;;;;;;;;16.34;71.20;100631.97;5103179;28;1858;-76
2023/09/02 11:38:48;;;;;;;;;;;;;;;16.36;71.41;100631.72;5104207;28;1304;-77
2023/09/02 11:41:40;;;;;;;;;;;;;;;16.36;71.28;100637.16;5099846;28;1616;-76
2023/09/02 11:44:33;;;;;;;;;;;;;;;16.38;71.32;100629.56;5094136;28;2085;-76
2023/09/02 11:47:24;;;;;;;;;;;;;;;16.40;71.34;100629.31;5096845;28;1961;-77
2023/09/02 11:50:16;;;;;;;;;;;;;;;16.39;71.49;100631.22;5095165;28;1654;-77
2023/09/02 11:53:08;;;;;;;;;;;;;;;16.42;71.38;100630.69;5100087;28;1530;-76
2023/09/02 11:56:00;;;;;;;;;;;;;;;16.43;71.50;100626.09;5102417;28;1990;-79
2023/09/02 11:58:53;;;;;;;;;;;;;;;16.44;71.69;100625.84;5100540;28;1554;-76
2023/09/02 12:01:44;;;;;;;;;;;;;;;16.46;71.77;100625.56;5108995;28;1439;-77
2023/09/02 12:04:37;;;;;;;;;;;;;;;16.47;71.63;100629.91;5107846;28;1546;-78
2023/09/02 12:07:28;;;;;;;;;;;;;;;16.48;71.69;100631.56;5092568;28;2213;-79
2023/09/02 12:10:24;;;;;;;;;;;;;;;16.49;71.76;100638.66;5096166;28;907;-78
2023/09/02 12:13:15;;;;;;;;;;;;;;;16.51;71.74;100636.50;5098830;28;2626;-77
2023/09/02 12:16:07;;;;;;;;;;;;;;;16.52;71.81;100643.56;5092710;28;1983;-78
2023/09/02 12:18:59;;;;;;;;;;;;;;;16.53;71.70;100646.03;5093436;28;1550;-78
2023/09/02 12:21:51;;;;;;;;;;;;;;;16.54;71.71;100647.66;5091853;28;1514;-77
2023/09/02 12:24:43;;;;;;;;;;;;;;;16.56;71.75;100655.59;5095898;28;1963;-77
2023/09/02 12:27:35;;;;;;;;;;;;;;;16.56;71.89;100659.13;5101147;28;2069;-76
2023/09/02 12:30:27;;;;;;;;;;;;;;;16.61;71.91;100658.34;5091542;28;1727;-78
2023/09/02 12:33:19;;;;;;;;;;;;;;;16.60;71.99;100645.81;5092786;28;3362;-78
2023/09/02 12:36:11;;;;;;;;;;;;;;;16.62;71.81;100648.28;5084832;28;2459;-79
2023/09/02 12:39:03;;;;;;;;;;;;;;;16.63;72.03;100648.03;5096200;28;2270;-78
2023/09/02 12:41:55;;;;;;;;;;;;;;;16.64;72.12;100641.50;5085544;28;2300;-77
2023/09/02 12:44:47;;;;;;;;;;;;;;;16.66;71.97;100649.41;5091462;28;1865;-78
2023/09/02 12:47:41;;;;;;;;;;;;;;;16.67;72.04;100651.03;5094497;28;1902;-78
2023/09/02 12:50:32;;;;;;;;;;;;;;;16.68;72.03;100653.53;5098297;28;1995;-78
2023/09/02 12:53:24;;;;;;;;;;;;;;;16.70;72.06;100647.81;5097049;28;2572;-76
2023/09/02 12:56:16;;;;;;;;;;;;;;;16.71;71.97;100663.88;5095758;28;2169;-75
2023/09/02 12:59:08;;;;;;;;;;;;;;;16.73;72.03;100663.63;5094135;28;2035;-76
2023/09/02 13:02:00;;;;;;;;;;;;;;;16.73;72.07;100661.72;5099199;28;2274;-74
2023/09/02 13:04:52;;;;;;;;;;;;;;;16.76;72.15;100657.69;5097112;28;2109;-77
2023/09/02 13:07:44;;;;;;;;;;;;;;;16.77;72.22;100662.88;5091915;28;2430;-77
2023/09/02 13:10:36;;;;;;;;;;;;;;;16.79;72.09;100657.16;5069566;28;2651;-77
2023/09/02 13:13:28;;;;;;;;;;;;;;;16.81;72.17;100655.03;5066806;28;2578;-76
2023/09/02 13:16:20;;;;;;;;;;;;;;;16.81;72.19;100657.75;5069664;28;2577;-75
2023/09/02 13:19:13;;;;;;;;;;;;;;;16.83;72.27;100655.59;5068030;28;2598;-76
2023/09/02 13:22:04;;;;;;;;;;;;;;;16.85;72.32;100647.97;5070856;28;2570;-77
2023/09/02 13:24:55;;;;;;;;;;;;;;;16.87;72.16;100645.00;5092334;28;2011;-78
2023/09/02 13:27:47;;;;;;;;;;;;;;;16.89;72.15;100648.31;5078626;28;2379;-78
2023/09/02 13:30:39;;;;;;;;;;;;;;;16.90;72.26;100652.66;5090570;28;1794;-77
2023/09/02 13:33:31;;;;;;;;;;;;;;;16.91;72.46;100646.97;5094939;28;1810;-76
2023/09/02 13:36:22;;;;;;;;;;;;;;;16.93;72.25;100652.13;5086155;28;1843;-77
2023/09/02 13:39:14;;;;;;;;;;;;;;;16.94;72.30;100651.88;5093377;28;1584;-78
2023/09/02 13:42:08;;;;;;;;;;;;;;;16.96;72.14;100660.59;5091128;28;2078;-76
2023/09/02 13:45:00;;;;;;;;;;;;;;;16.97;72.36;100659.53;5095404;28;1525;-75
2023/09/02 13:47:51;;;;;;;;;;;;;;;16.99;72.36;100664.69;5093619;28;1959;-76
2023/09/02 13:50:45;;;;;;;;;;;;;;;17.00;72.43;100661.72;5104006;28;1819;-77
2023/09/02 13:53:36;;;;;;;;;;;;;;;17.02;72.37;100656.00;5090148;28;2109;-77
2023/09/02 13:56:27;;;;;;;;;;;;;;;17.04;72.40;100664.75;5094683;28;2144;-77
2023/09/02 13:59:18;;;;;;;;;;;;;;;17.06;72.15;100659.03;5101987;28;1514;-76
2023/09/02 14:02:10;;;;;;;;;;;;;;;17.08;72.20;100662.31;5080768;28;2309;-77
2023/09/02 14:05:03;;;;;;;;;;;;;;;17.09;72.42;100659.34;5070109;28;2282;-77
2023/09/02 14:07:56;;;;;;;;;;;;;;;17.11;72.41;100659.88;5074454;28;2590;-77
2023/09/02 14:10:49;;;;;;;;;;;;;;;17.13;72.37;100659.63;5067184;28;2282;-76
2023/09/02 14:13:41;;;;;;;;;;;;;;;17.15;72.38;100655.59;5094922;28;2286;-78
2023/09/02 14:16:33;;;;;;;;;;;;;;;17.17;72.29;100658.03;5091103;28;2262;-76
2023/09/02 14:19:25;;;;;;;;;;;;;;;17.19;72.54;100655.88;5097983;28;1200;-76
2023/09/02 14:22:16;;;;;;;;;;;;;;;17.20;72.48;100647.44;5093438;28;2021;-74
2023/09/02 14:25:09;;;;;;;;;;;;;;;17.22;72.22;100650.72;5101716;28;1199;-76
2023/09/02 14:28:01;;;;;;;;;;;;;;;17.24;72.43;100658.63;5094839;28;1894;-74
2023/09/02 14:30:53;;;;;;;;;;;;;;;17.25;72.32;100649.38;5087299;28;2111;-77
2023/09/02 14:33:45;;;;;;;;;;;;;;;17.28;72.62;100658.94;5092190;28;1771;-78
2023/09/02 14:36:37;;;;;;;;;;;;;;;17.30;72.42;100654.88;5084848;28;3488;-76
2023/09/02 14:39:29;;;;;;;;;;;;;;;17.31;72.29;100650.25;5095581;28;1551;-77
2023/09/02 14:42:22;;;;;;;;;;;;;;;17.33;72.52;100658.97;5103313;28;1199;-77
2023/09/02 14:45:13;;;;;;;;;;;;;;;17.35;72.26;100654.06;5092657;28;2569;-77
2023/09/02 14:48:07;;;;;;;;;;;;;;;17.36;72.52;100647.56;5098315;28;2219;-76
2023/09/02 14:50:59;;;;;;;;;;;;;;;17.38;72.35;100653.53;5099886;28;2168;-75
2023/09/02 14:53:51;;;;;;;;;;;;;;;17.39;72.50;100649.75;5094305;28;2291;-76
2023/09/02 14:56:43;;;;;;;;;;;;;;;17.41;72.35;100647.56;5102518;28;2219;-77